createdAt,value
2019-01-21T00:01:54.279Z,98.00
2019-01-21T00:04:24.033Z,97.80
2019-01-21T00:06:53.764Z,99.03
2019-01-21T00:09:23.393Z,89.67
2019-01-21T00:11:52.989Z,91.30
2019-01-21T00:14:22.934Z,90.57
2019-01-21T00:16:52.535Z,88.33
2019-01-21T00:19:22.242Z,91.93
2019-01-21T00:21:53.632Z,83.93
2019-01-21T00:24:23.226Z,93.27
2019-01-21T00:26:53.087Z,87.57
2019-01-21T00:29:22.717Z,87.83
2019-01-21T00:31:52.363Z,84.67
2019-01-21T00:34:22.009Z,86.03
2019-01-21T00:36:51.821Z,80.47
2019-01-21T00:39:21.492Z,79.50
2019-01-21T00:41:51.168Z,74.03
2019-01-21T00:44:20.692Z,66.57
2019-01-21T00:46:50.428Z,70.27
2019-01-21T00:49:20.149Z,63.93
2019-01-21T00:51:49.638Z,74.20
2019-01-21T00:54:19.237Z,70.93
2019-01-21T00:56:48.887Z,70.80
2019-01-21T00:59:18.577Z,65.30
2019-01-21T01:01:48.212Z,68.00
2019-01-21T01:04:17.887Z,72.30
2019-01-21T01:06:47.647Z,68.97
2019-01-21T01:09:17.403Z,68.43
2019-01-21T01:11:47.454Z,69.63
2019-01-21T01:14:17.194Z,65.10
2019-01-21T01:16:47.337Z,69.03
2019-01-21T01:19:17.247Z,64.20
2019-01-21T01:21:46.879Z,68.27
2019-01-21T01:24:16.563Z,64.13
2019-01-21T01:26:46.243Z,59.67
2019-01-21T01:29:15.987Z,59.73
2019-01-21T01:31:45.638Z,65.80
2019-01-21T01:34:15.407Z,59.40
2019-01-21T01:36:45.127Z,60.33
2019-01-21T01:39:14.923Z,62.30
2019-01-21T01:41:44.483Z,64.53
2019-01-21T01:44:14.561Z,60.57
2019-01-21T01:46:44.602Z,62.63
2019-01-21T01:49:14.193Z,59.03
2019-01-21T01:51:43.968Z,59.73
2019-01-21T01:54:13.616Z,62.67
2019-01-21T01:56:43.313Z,62.90
2019-01-21T01:59:13.158Z,64.57
2019-01-21T02:01:42.872Z,61.40
2019-01-21T02:04:12.541Z,67.50
2019-01-21T02:06:42.297Z,65.50
2019-01-21T02:09:12.017Z,70.97
2019-01-21T02:11:42.036Z,65.80
2019-01-21T02:14:11.648Z,61.47
2019-01-21T02:16:41.212Z,73.77
2019-01-21T02:19:10.817Z,71.17
2019-01-21T02:21:42.059Z,70.17
2019-01-21T02:24:13.978Z,72.33
2019-01-21T02:26:48.287Z,63.70
2019-01-21T02:29:22.673Z,67.03
2019-01-21T02:32:30.289Z,68.33
2019-01-21T02:35:10.172Z,65.47
2019-01-21T02:38:02.501Z,70.17
2019-01-21T02:40:42.489Z,68.17
2019-01-21T02:43:43.938Z,68.50
2019-01-21T02:46:21.022Z,61.30
2019-01-21T02:49:17.913Z,60.10
2019-01-21T02:52:11.375Z,66.03
2019-01-21T02:54:52.126Z,61.77
2019-01-21T02:58:07.453Z,60.97
2019-01-21T03:01:09.077Z,57.63
2019-01-21T03:03:54.865Z,60.93
2019-01-21T03:06:57.647Z,67.43
2019-01-21T03:09:41.367Z,57.80
2019-01-21T03:12:43.055Z,61.47
2019-01-21T03:15:36.829Z,57.83
2019-01-21T03:18:28.876Z,57.43
2019-01-21T03:21:09.082Z,54.33
2019-01-21T03:24:19.668Z,50.57
2019-01-21T03:27:24.170Z,53.63
2019-01-21T03:30:16.694Z,55.13
2019-01-21T03:33:15.098Z,55.33
2019-01-21T03:36:01.780Z,52.07
2019-01-21T03:39:08.010Z,56.00
2019-01-21T03:41:51.088Z,53.63
2019-01-21T03:45:03.287Z,55.37
2019-01-21T03:47:37.756Z,53.90
2019-01-21T03:50:36.397Z,53.40
2019-01-21T03:53:22.531Z,49.23
2019-01-21T03:55:57.546Z,54.07
2019-01-21T03:58:40.632Z,51.57
2019-01-21T04:01:34.387Z,52.80
2019-01-21T04:04:20.426Z,48.67
2019-01-21T04:06:54.927Z,51.17
2019-01-21T04:09:44.261Z,50.60
2019-01-21T04:12:35.217Z,51.67
2019-01-21T04:15:36.648Z,53.37
2019-01-21T04:18:29.307Z,49.73
2019-01-21T04:21:18.455Z,53.53
2019-01-21T04:24:14.232Z,51.23
2019-01-21T04:27:12.557Z,51.63
2019-01-21T04:30:15.350Z,55.13
2019-01-21T04:32:55.917Z,55.40
2019-01-21T04:35:51.966Z,58.90
2019-01-21T04:38:57.989Z,56.10
2019-01-21T04:41:44.492Z,52.80
2019-01-21T04:44:24.529Z,55.97
2019-01-21T04:47:20.073Z,56.53
2019-01-21T04:50:08.755Z,55.93
2019-01-21T04:52:51.842Z,53.07
2019-01-21T04:55:49.552Z,53.47
2019-01-21T04:58:29.613Z,58.03
2019-01-21T05:01:23.247Z,60.93
2019-01-21T05:04:18.646Z,54.07
2019-01-21T05:07:05.061Z,51.30
2019-01-21T05:09:44.841Z,53.03
2019-01-21T05:12:40.562Z,53.40
2019-01-21T05:15:40.545Z,60.10
2019-01-21T05:18:20.862Z,58.13
2019-01-21T05:21:10.202Z,53.37
2019-01-21T05:24:07.715Z,57.40
2019-01-21T05:26:54.221Z,54.33
2019-01-21T05:29:43.066Z,56.20
2019-01-21T05:32:36.633Z,58.70
2019-01-21T05:35:37.981Z,53.67
2019-01-21T05:38:15.077Z,56.50
2019-01-21T05:41:03.816Z,51.07
2019-01-21T05:44:24.823Z,58.47
2019-01-21T05:47:20.233Z,52.97
2019-01-21T05:50:28.443Z,54.60
2019-01-21T05:53:42.017Z,57.97
2019-01-21T05:56:43.621Z,52.63
2019-01-21T05:59:20.708Z,54.40
2019-01-21T06:02:03.740Z,53.90
2019-01-21T06:04:41.161Z,52.27
2019-01-21T06:07:24.070Z,51.40
2019-01-21T06:10:04.426Z,57.40
2019-01-21T06:12:50.609Z,58.90
2019-01-21T06:15:28.200Z,57.23
2019-01-21T06:18:13.926Z,58.30
2019-01-21T06:21:07.977Z,50.93
2019-01-21T06:23:50.942Z,57.93
2019-01-21T06:27:01.536Z,54.47
2019-01-21T06:29:58.580Z,52.13
2019-01-21T06:32:32.850Z,59.30
2019-01-21T06:35:15.845Z,54.17
2019-01-21T06:38:07.359Z,59.20
2019-01-21T06:40:44.349Z,55.27
2019-01-21T06:43:39.754Z,58.43
2019-01-21T06:46:35.380Z,55.70
2019-01-21T06:49:21.699Z,55.30
2019-01-21T06:52:10.803Z,55.70
2019-01-21T06:55:21.285Z,52.47
2019-01-21T06:58:07.428Z,50.77
2019-01-21T07:01:16.881Z,50.53
2019-01-21T07:03:59.754Z,56.53
2019-01-21T07:07:01.216Z,54.17
2019-01-21T07:09:59.257Z,55.23
2019-01-21T07:13:08.554Z,52.20
2019-01-21T07:16:07.020Z,56.87
2019-01-21T07:18:50.189Z,51.63
2019-01-21T07:21:57.506Z,52.23
2019-01-21T07:25:04.933Z,48.97
2019-01-21T07:27:48.060Z,55.13
2019-01-21T07:30:48.861Z,48.07
2019-01-21T07:33:58.295Z,54.87
2019-01-21T07:36:50.532Z,51.27
2019-01-21T07:39:47.075Z,55.27
2019-01-21T07:42:54.714Z,57.20
2019-01-21T07:45:31.715Z,53.10
2019-01-21T07:48:17.624Z,57.67
2019-01-21T07:51:21.656Z,48.97
2019-01-21T07:54:14.040Z,46.40
2019-01-21T07:57:16.954Z,50.77
2019-01-21T07:59:59.789Z,54.17
2019-01-21T08:03:08.706Z,51.30
2019-01-21T08:05:49.021Z,49.40
2019-01-21T08:08:59.773Z,55.27
2019-01-21T08:11:46.184Z,50.90
2019-01-21T08:14:23.452Z,55.57
2019-01-21T08:17:31.341Z,47.67
2019-01-21T08:20:23.240Z,57.10
2019-01-21T08:23:30.748Z,50.60
2019-01-21T08:26:05.071Z,55.00
2019-01-21T08:28:53.507Z,47.50
2019-01-21T08:31:56.583Z,56.57
2019-01-21T08:34:39.436Z,52.03
2019-01-21T08:37:39.230Z,51.27
2019-01-21T08:40:45.660Z,52.53
2019-01-21T08:43:50.080Z,52.63
2019-01-21T08:46:36.190Z,52.03
2019-01-21T08:49:22.181Z,54.00
2019-01-21T08:52:18.876Z,57.27
2019-01-21T08:55:29.718Z,58.30
2019-01-21T08:58:23.752Z,57.30
2019-01-21T09:01:25.377Z,54.83
2019-01-21T09:04:26.599Z,45.97
2019-01-21T09:07:17.689Z,46.27
2019-01-21T09:10:00.733Z,37.63
2019-01-21T09:13:08.253Z,37.73
2019-01-21T09:15:57.220Z,36.97
2019-01-21T09:18:49.748Z,35.70
2019-01-21T09:21:41.905Z,38.37
2019-01-21T09:24:22.025Z,34.90
2019-01-21T09:27:14.355Z,35.40
2019-01-21T09:29:54.668Z,33.83
2019-01-21T09:32:49.740Z,33.20
2019-01-21T09:35:38.884Z,32.90
2019-01-21T09:38:22.169Z,28.90
2019-01-21T09:41:24.938Z,32.27
2019-01-21T09:44:02.283Z,32.47
2019-01-21T09:46:44.133Z,34.70
2019-01-21T09:49:12.202Z,31.63
2019-01-21T09:51:44.875Z,35.10
2019-01-21T09:54:14.801Z,33.63
2019-01-21T09:56:44.664Z,32.93
2019-01-21T09:59:14.330Z,34.10
2019-01-21T10:01:43.954Z,33.70
2019-01-21T10:04:18.291Z,34.37
2019-01-21T10:06:51.952Z,31.20
2019-01-21T10:09:35.469Z,34.57
2019-01-21T10:12:32.913Z,35.30
2019-01-21T10:15:16.510Z,30.10
2019-01-21T10:18:10.302Z,37.20
2019-01-21T10:21:29.577Z,35.70
2019-01-21T10:24:30.932Z,31.60
2019-01-21T10:27:14.201Z,36.57
2019-01-21T10:30:07.659Z,32.53
2019-01-21T10:33:19.932Z,34.50
2019-01-21T10:36:12.454Z,34.60
2019-01-21T10:39:07.832Z,34.13
2019-01-21T10:42:06.443Z,28.80
2019-01-21T10:44:52.338Z,30.23
2019-01-21T10:47:38.581Z,30.43
2019-01-21T10:50:34.238Z,32.20
2019-01-21T10:53:38.622Z,29.37
2019-01-21T10:56:15.916Z,30.17
2019-01-21T10:59:14.560Z,32.07
2019-01-21T11:02:26.684Z,35.20
2019-01-21T11:05:01.106Z,38.60
2019-01-21T11:08:09.837Z,32.23
2019-01-21T11:11:04.268Z,38.43
2019-01-21T11:13:44.378Z,36.40
2019-01-21T11:16:29.654Z,42.53
2019-01-21T11:19:28.189Z,34.43
2019-01-21T11:22:02.419Z,37.30
2019-01-21T11:24:54.569Z,33.90
2019-01-21T11:27:46.537Z,33.77
2019-01-21T11:30:23.653Z,36.63
2019-01-21T11:33:28.277Z,34.13
2019-01-21T11:36:35.198Z,36.77
2019-01-21T11:39:40.979Z,36.30
2019-01-21T11:42:54.697Z,33.97
2019-01-21T11:45:58.165Z,34.23
2019-01-21T11:48:47.633Z,34.77
2019-01-21T11:51:21.997Z,34.87
2019-01-21T11:54:04.844Z,39.57
2019-01-21T11:56:48.311Z,35.50
2019-01-21T11:59:39.222Z,35.93
2019-01-21T12:02:30.135Z,34.57
2019-01-21T12:05:34.782Z,35.90
2019-01-21T12:08:24.120Z,36.13
2019-01-21T12:11:07.149Z,32.50
2019-01-21T12:14:00.987Z,35.37
2019-01-21T12:16:59.298Z,33.10
2019-01-21T12:19:45.674Z,31.33
2019-01-21T12:22:29.103Z,37.37
2019-01-21T12:25:03.339Z,31.77
2019-01-21T12:28:01.785Z,32.70
2019-01-21T12:30:39.010Z,33.80
2019-01-21T12:33:35.897Z,32.50
2019-01-21T12:36:16.738Z,32.40
2019-01-21T12:39:03.354Z,34.30
2019-01-21T12:41:51.979Z,32.73
2019-01-21T12:44:56.093Z,32.97
2019-01-21T12:48:00.281Z,32.40
2019-01-21T12:50:55.827Z,35.27
2019-01-21T12:53:57.216Z,35.33
2019-01-21T12:56:58.334Z,33.60
2019-01-21T12:59:49.937Z,36.47
2019-01-21T13:02:27.072Z,36.83
2019-01-21T13:05:22.805Z,32.73
2019-01-21T13:07:59.791Z,39.43
2019-01-21T13:10:36.848Z,31.87
2019-01-21T13:13:33.911Z,35.53
2019-01-21T13:16:20.010Z,35.83
2019-01-21T13:19:26.000Z,35.67
2019-01-21T13:22:25.923Z,37.53
2019-01-21T13:25:20.626Z,36.20
2019-01-21T13:28:00.952Z,39.13
2019-01-21T13:31:05.296Z,34.03
2019-01-21T13:33:58.845Z,36.03
2019-01-21T13:36:51.147Z,32.43
2019-01-21T13:39:53.942Z,35.20
2019-01-21T13:42:28.331Z,35.93
2019-01-21T13:45:17.751Z,37.53
2019-01-21T13:48:00.821Z,38.13
2019-01-21T13:50:47.011Z,39.10
2019-01-21T13:53:43.902Z,40.40
2019-01-21T13:56:36.008Z,38.53
2019-01-21T13:59:25.284Z,39.67
2019-01-21T14:02:05.646Z,38.67
2019-01-21T14:04:57.857Z,37.10
2019-01-21T14:07:47.105Z,36.10
2019-01-21T14:10:39.523Z,37.57
2019-01-21T14:13:26.484Z,40.47
2019-01-21T14:16:22.052Z,35.93
2019-01-21T14:19:11.389Z,38.80
2019-01-21T14:22:14.215Z,38.67
2019-01-21T14:24:56.372Z,43.10
2019-01-21T14:27:54.205Z,39.30
2019-01-21T14:30:37.362Z,38.47
2019-01-21T14:33:20.760Z,46.00
2019-01-21T14:36:00.737Z,38.93
2019-01-21T14:38:51.601Z,39.30
2019-01-21T14:41:28.906Z,38.90
2019-01-21T14:44:41.219Z,38.73
2019-01-21T14:47:36.553Z,38.30
2019-01-21T14:50:16.572Z,39.73
2019-01-21T14:53:15.148Z,43.03
2019-01-21T14:56:01.073Z,39.73
2019-01-21T14:58:47.567Z,37.07
2019-01-21T15:01:25.000Z,40.93
2019-01-21T15:04:25.223Z,37.37
2019-01-21T15:07:02.562Z,43.17
2019-01-21T15:10:14.690Z,38.83
2019-01-21T15:13:07.237Z,43.27
2019-01-21T15:15:47.307Z,40.37
2019-01-21T15:18:45.720Z,39.37
2019-01-21T15:21:39.644Z,39.97
2019-01-21T15:24:25.422Z,40.03
2019-01-21T15:27:07.968Z,46.10
2019-01-21T15:29:48.097Z,38.37
2019-01-21T15:32:49.356Z,38.83
2019-01-21T15:35:52.154Z,37.73
2019-01-21T15:38:51.619Z,36.40
2019-01-21T15:41:31.470Z,35.47
2019-01-21T15:44:17.826Z,39.10
2019-01-21T15:47:03.789Z,39.53
2019-01-21T15:49:41.066Z,42.57
2019-01-21T15:52:27.029Z,40.07
2019-01-21T15:55:19.351Z,39.30
2019-01-21T15:58:18.955Z,41.03
2019-01-21T16:01:09.271Z,43.57
2019-01-21T16:03:58.500Z,43.60
2019-01-21T16:06:44.362Z,42.00
2019-01-21T16:09:39.395Z,42.00
2019-01-21T16:12:53.028Z,38.70
2019-01-21T16:16:00.326Z,42.97
2019-01-21T16:18:49.495Z,41.27
2019-01-21T16:21:50.072Z,40.20
2019-01-21T16:24:43.797Z,40.70
2019-01-21T16:27:39.136Z,35.87
2019-01-21T16:30:34.225Z,41.40
2019-01-21T16:33:17.104Z,37.90
2019-01-21T16:35:57.155Z,38.53
2019-01-21T16:38:26.917Z,41.20
2019-01-21T16:41:30.916Z,39.17
2019-01-21T16:44:00.651Z,38.37
2019-01-21T16:46:30.302Z,40.17
2019-01-21T16:49:00.019Z,40.33
2019-01-21T16:51:29.886Z,38.50
2019-01-21T16:53:59.589Z,37.70
2019-01-21T16:56:29.251Z,42.87
2019-01-21T16:58:59.051Z,41.73
2019-01-21T17:01:28.556Z,42.57
2019-01-21T17:03:58.202Z,37.90
2019-01-21T17:06:27.957Z,40.87
2019-01-21T17:08:57.661Z,36.63
2019-01-21T17:11:27.175Z,36.67
2019-01-21T17:13:57.030Z,37.67
2019-01-21T17:16:26.596Z,37.27
2019-01-21T17:18:56.537Z,37.53
2019-01-21T17:21:27.097Z,33.80
2019-01-21T17:23:56.978Z,33.10
2019-01-21T17:26:26.938Z,34.53
2019-01-21T17:28:56.729Z,34.67
2019-01-21T17:31:26.419Z,32.37
2019-01-21T17:33:56.081Z,33.47
2019-01-21T17:36:25.663Z,39.70
2019-01-21T17:38:55.544Z,32.20
2019-01-21T17:41:25.365Z,37.20
2019-01-21T17:43:55.234Z,34.20
2019-01-21T17:46:25.001Z,31.07
2019-01-21T17:48:54.987Z,31.93
2019-01-21T17:51:24.752Z,34.43
2019-01-21T17:53:55.048Z,32.93
2019-01-21T17:56:24.838Z,31.73
2019-01-21T17:58:55.434Z,31.10
2019-01-21T18:01:25.468Z,29.73
2019-01-21T18:03:55.621Z,34.17
2019-01-21T18:06:25.186Z,29.83
2019-01-21T18:08:55.251Z,32.43
2019-01-21T18:11:24.926Z,33.30
2019-01-21T18:13:54.898Z,31.27
2019-01-21T18:16:24.466Z,31.53
2019-01-21T18:18:54.220Z,37.20
2019-01-21T18:21:23.871Z,35.73
2019-01-21T18:23:53.587Z,29.70
2019-01-21T18:26:23.296Z,31.57
2019-01-21T18:28:53.236Z,30.93
2019-01-21T18:31:22.905Z,35.83
2019-01-21T18:33:52.708Z,32.57
2019-01-21T18:36:22.556Z,31.37
2019-01-21T18:38:52.277Z,34.03
2019-01-21T18:41:26.204Z,31.27
2019-01-21T18:43:56.470Z,32.00
2019-01-21T18:46:26.218Z,33.20
2019-01-21T18:48:55.860Z,37.70
2019-01-21T18:51:27.370Z,33.80
2019-01-21T18:53:57.107Z,34.73
2019-01-21T18:56:26.871Z,33.33
2019-01-21T18:58:56.651Z,34.70
2019-01-21T19:01:26.547Z,34.60
2019-01-21T19:03:56.354Z,34.67
2019-01-21T19:06:27.279Z,34.10
2019-01-21T19:08:57.165Z,34.27
2019-01-21T19:11:28.282Z,30.70
2019-01-21T19:13:57.904Z,37.30
2019-01-21T19:16:27.780Z,30.60
2019-01-21T19:18:57.497Z,34.97
2019-01-21T19:21:27.465Z,35.17
2019-01-21T19:23:57.220Z,33.57
2019-01-21T19:26:26.854Z,32.37
2019-01-21T19:28:56.607Z,34.20
2019-01-21T19:31:26.255Z,38.03
2019-01-21T19:33:55.860Z,35.47
2019-01-21T19:36:25.744Z,37.07
2019-01-21T19:38:55.288Z,32.83
2019-01-21T19:41:25.033Z,33.33
2019-01-21T19:43:54.536Z,36.70
2019-01-21T19:46:24.258Z,40.00
2019-01-21T19:48:53.937Z,36.30
2019-01-21T19:51:23.612Z,37.93
2019-01-21T19:53:53.377Z,37.03
2019-01-21T19:56:23.211Z,34.57
2019-01-21T19:58:52.800Z,40.20
2019-01-21T20:01:22.528Z,38.27
2019-01-21T20:03:54.023Z,42.53
2019-01-21T20:06:23.803Z,36.97
2019-01-21T20:08:53.534Z,40.13
2019-01-21T20:11:23.512Z,39.87
2019-01-21T20:13:53.314Z,36.13
2019-01-21T20:16:24.385Z,35.07
2019-01-21T20:18:54.379Z,36.33
2019-01-21T20:21:25.167Z,39.07
2019-01-21T20:23:55.035Z,36.77
2019-01-21T20:26:24.677Z,37.23
2019-01-21T20:28:54.709Z,35.57
2019-01-21T20:31:24.421Z,37.77
2019-01-21T20:33:54.236Z,39.77
2019-01-21T20:36:24.429Z,38.10
2019-01-21T20:38:54.179Z,41.57
2019-01-21T20:41:23.840Z,36.03
2019-01-21T20:43:53.889Z,38.30
2019-01-21T20:46:23.795Z,35.97
2019-01-21T20:48:53.468Z,34.33
2019-01-21T20:51:23.046Z,35.90
2019-01-21T20:53:52.805Z,38.53
2019-01-21T20:56:22.764Z,36.20
2019-01-21T20:58:52.391Z,39.80
2019-01-21T21:01:22.207Z,39.50
2019-01-21T21:03:53.121Z,37.53
2019-01-21T21:06:22.651Z,36.20
2019-01-21T21:08:52.497Z,37.33
2019-01-21T21:11:22.059Z,40.03
2019-01-21T21:13:52.290Z,37.90
2019-01-21T21:16:21.922Z,41.63
2019-01-21T21:18:51.858Z,37.90
2019-01-21T21:21:21.570Z,38.23
2019-01-21T21:23:51.189Z,39.53
2019-01-21T21:26:20.744Z,37.43
2019-01-21T21:28:50.632Z,39.77
2019-01-21T21:31:20.628Z,40.10
2019-01-21T21:33:50.254Z,35.30
2019-01-21T21:36:19.785Z,41.43
2019-01-21T21:38:49.620Z,44.27
2019-01-21T21:41:19.449Z,41.90
2019-01-21T21:43:49.092Z,44.20
2019-01-21T21:46:18.738Z,39.43
2019-01-21T21:48:48.342Z,43.53
2019-01-21T21:51:18.556Z,43.70
2019-01-21T21:53:48.202Z,41.37
2019-01-21T21:56:18.096Z,40.37
2019-01-21T21:58:47.641Z,41.97
2019-01-21T22:01:24.049Z,40.40
2019-01-21T22:03:52.463Z,40.77
2019-01-21T22:06:22.070Z,41.40
2019-01-21T22:08:51.726Z,40.83
2019-01-21T22:11:21.462Z,37.57
2019-01-21T22:13:51.624Z,41.07
2019-01-21T22:16:21.237Z,41.40
2019-01-21T22:18:50.867Z,40.33
2019-01-21T22:21:20.681Z,42.30
2019-01-21T22:23:50.300Z,45.43
2019-01-21T22:26:20.354Z,42.63
2019-01-21T22:28:49.974Z,46.20
2019-01-21T22:31:19.744Z,42.40
2019-01-21T22:33:49.680Z,42.60
2019-01-21T22:36:19.566Z,44.20
2019-01-21T22:38:49.138Z,44.63
2019-01-21T22:41:19.214Z,43.47
2019-01-21T22:43:49.293Z,44.83
2019-01-21T22:46:19.746Z,39.20
2019-01-21T22:48:49.810Z,46.97
2019-01-21T22:51:20.492Z,42.97
2019-01-21T22:53:50.324Z,44.73
2019-01-21T22:56:20.378Z,44.00
2019-01-21T22:58:50.023Z,40.30
2019-01-21T23:01:23.818Z,44.03
2019-01-21T23:03:53.753Z,45.93
2019-01-21T23:06:23.789Z,49.27
2019-01-21T23:08:53.791Z,46.97
2019-01-21T23:11:23.524Z,49.73
2019-01-21T23:13:53.202Z,42.13
2019-01-21T23:16:22.965Z,47.07
2019-01-21T23:18:52.922Z,44.47
2019-01-21T23:21:22.805Z,42.73
2019-01-21T23:23:52.718Z,45.10
2019-01-21T23:26:22.303Z,42.70
2019-01-21T23:28:52.102Z,52.70
2019-01-21T23:31:21.802Z,48.17
2019-01-21T23:33:51.359Z,42.43
2019-01-21T23:36:21.375Z,47.77
2019-01-21T23:38:51.148Z,44.23
2019-01-21T23:41:21.274Z,42.13
2019-01-21T23:43:50.877Z,43.30
2019-01-21T23:46:20.547Z,42.90
2019-01-21T23:48:50.149Z,41.43
2019-01-21T23:51:20.158Z,44.60
2019-01-21T23:53:50.055Z,44.60
2019-01-21T23:56:19.664Z,43.03
2019-01-21T23:58:49.254Z,44.70
